createdAt,value
2023-03-12T00:01:23.473Z,-0.42
2023-03-12T00:03:36.093Z,-0.44
2023-03-12T00:05:48.706Z,-0.45
2023-03-12T00:08:01.275Z,-0.48
2023-03-12T00:10:14.528Z,-0.51
2023-03-12T00:12:27.092Z,-0.51
2023-03-12T00:14:39.678Z,-0.53
2023-03-12T00:16:52.275Z,-0.52
2023-03-12T00:19:04.899Z,-0.53
2023-03-12T00:21:18.613Z,-0.54
2023-03-12T00:23:31.284Z,-0.55
2023-03-12T00:25:46.730Z,-0.54
2023-03-12T00:27:59.502Z,-0.53
2023-03-12T00:30:12.461Z,-0.53
2023-03-12T00:32:25.199Z,-0.53
2023-03-12T00:34:37.750Z,-0.51
2023-03-12T00:36:50.354Z,-0.48
2023-03-12T00:39:03.488Z,-0.44
2023-03-12T00:41:16.015Z,-0.42
2023-03-12T00:43:28.561Z,-0.41
2023-03-12T00:45:41.149Z,-0.38
2023-03-12T00:47:53.775Z,-0.37
2023-03-12T00:50:06.743Z,-0.36
2023-03-12T00:52:19.319Z,-0.34
2023-03-12T00:54:32.128Z,-0.32
2023-03-12T00:56:46.701Z,-0.32
2023-03-12T00:58:59.287Z,-0.29
2023-03-12T01:01:12.132Z,-0.29
2023-03-12T01:03:24.802Z,-0.29
2023-03-12T01:05:40.662Z,-0.29
2023-03-12T01:07:53.376Z,-0.27
2023-03-12T01:10:06.999Z,-0.27
2023-03-12T01:12:19.636Z,-0.25
2023-03-12T01:14:32.235Z,-0.25
2023-03-12T01:16:44.917Z,-0.25
2023-03-12T01:18:59.391Z,-0.24
2023-03-12T01:21:12.037Z,-0.23
2023-03-12T01:23:25.111Z,-0.22
2023-03-12T01:25:37.677Z,-0.23
2023-03-12T01:27:50.318Z,-0.22
2023-03-12T01:30:05.464Z,-0.22
2023-03-12T01:32:18.293Z,-0.23
2023-03-12T01:34:33.323Z,-0.22
2023-03-12T01:36:47.616Z,-0.22
2023-03-12T01:39:00.290Z,-0.24
2023-03-12T01:41:13.186Z,-0.21
2023-03-12T01:43:34.625Z,-0.18
2023-03-12T01:46:03.624Z,-0.19
2023-03-12T01:48:19.394Z,-0.23
2023-03-12T01:50:31.989Z,-0.19
2023-03-12T01:52:44.545Z,-0.15
2023-03-12T01:55:09.484Z,-0.16
2023-03-12T01:57:32.358Z,-0.16
2023-03-12T01:59:59.130Z,-0.17
2023-03-12T02:02:12.671Z,-0.17
2023-03-12T02:04:28.828Z,-0.14
2023-03-12T02:06:50.162Z,-0.14
2023-03-12T02:09:06.040Z,-0.14
2023-03-12T02:11:18.708Z,-0.12
2023-03-12T02:13:31.399Z,-0.11
2023-03-12T02:15:44.049Z,-0.10
2023-03-12T02:17:56.663Z,-0.08
2023-03-12T02:20:20.341Z,-0.05
2023-03-12T02:22:35.485Z,-0.05
2023-03-12T02:25:03.999Z,-0.03
2023-03-12T02:27:18.968Z,-0.06
2023-03-12T02:29:34.784Z,-0.03
2023-03-12T02:31:52.395Z,-0.02
2023-03-12T02:34:05.106Z,-0.03
2023-03-12T02:36:17.716Z,-0.01
2023-03-12T02:38:35.380Z,-0.00
2023-03-12T02:40:48.825Z,-0.01
2023-03-12T02:43:03.109Z,0.00
2023-03-12T02:45:15.796Z,-0.01
2023-03-12T02:47:28.445Z,-0.02
2023-03-12T02:49:41.059Z,-0.02
2023-03-12T02:51:54.563Z,-0.02
2023-03-12T02:54:07.907Z,0.01
2023-03-12T02:56:26.237Z,-0.01
2023-03-12T02:58:38.797Z,-0.01
2023-03-12T03:00:51.670Z,0.01
2023-03-12T03:03:04.279Z,0.02
2023-03-12T03:05:16.927Z,0.02
2023-03-12T03:07:29.547Z,0.02
2023-03-12T03:09:42.164Z,0.01
2023-03-12T03:11:54.729Z,0.00
2023-03-12T03:14:07.442Z,0.04
2023-03-12T03:16:21.036Z,0.01
2023-03-12T03:18:33.838Z,0.01
2023-03-12T03:20:54.186Z,-0.02
2023-03-12T03:23:06.722Z,-0.03
2023-03-12T03:25:22.236Z,-0.05
2023-03-12T03:27:34.960Z,-0.06
2023-03-12T03:29:47.562Z,-0.03
2023-03-12T03:32:00.276Z,-0.03
2023-03-12T03:34:12.924Z,-0.05
2023-03-12T03:36:25.510Z,-0.03
2023-03-12T03:38:38.085Z,-0.02
2023-03-12T03:40:50.680Z,-0.02
2023-03-12T03:43:03.290Z,-0.02
2023-03-12T03:45:16.049Z,-0.01
2023-03-12T03:47:28.640Z,-0.02
2023-03-12T03:49:41.236Z,-0.02
2023-03-12T03:51:53.882Z,-0.03
2023-03-12T03:54:06.439Z,-0.02
2023-03-12T03:56:19.394Z,0.01
2023-03-12T03:58:31.934Z,0.02
2023-03-12T04:00:45.473Z,0.01
2023-03-12T04:02:58.098Z,0.00
2023-03-12T04:05:11.216Z,-0.00
2023-03-12T04:07:23.756Z,0.01
2023-03-12T04:09:36.805Z,0.05
2023-03-12T04:11:49.376Z,0.10
2023-03-12T04:14:01.930Z,0.10
2023-03-12T04:16:15.855Z,0.12
2023-03-12T04:18:28.593Z,0.13
2023-03-12T04:20:41.449Z,0.15
2023-03-12T04:22:54.137Z,0.18
2023-03-12T04:25:07.395Z,0.24
2023-03-12T04:27:19.930Z,0.23
2023-03-12T04:29:32.440Z,0.27
2023-03-12T04:31:45.602Z,0.29
2023-03-12T04:33:58.208Z,0.28
2023-03-12T04:36:13.232Z,0.30
2023-03-12T04:38:27.251Z,0.27
2023-03-12T04:40:39.802Z,0.28
2023-03-12T04:42:52.351Z,0.26
2023-03-12T04:45:06.777Z,0.26
2023-03-12T04:47:19.299Z,0.24
2023-03-12T04:49:31.856Z,0.20
2023-03-12T04:51:44.488Z,0.20
2023-03-12T04:53:57.676Z,0.22
2023-03-12T04:56:10.284Z,0.24
2023-03-12T04:58:23.030Z,0.28
2023-03-12T05:00:36.681Z,0.27
2023-03-12T05:02:49.239Z,0.26
2023-03-12T05:05:01.931Z,0.24
2023-03-12T05:07:14.977Z,0.26
2023-03-12T05:09:27.667Z,0.27
2023-03-12T05:11:40.182Z,0.27
2023-03-12T05:13:52.841Z,0.26
2023-03-12T05:16:06.006Z,0.24
2023-03-12T05:18:20.510Z,0.21
2023-03-12T05:20:33.096Z,0.20
2023-03-12T05:22:45.818Z,0.20
2023-03-12T05:24:58.321Z,0.19
2023-03-12T05:27:11.569Z,0.20
2023-03-12T05:29:24.248Z,0.21
2023-03-12T05:31:36.951Z,0.26
2023-03-12T05:33:52.711Z,0.26
2023-03-12T05:36:05.955Z,0.25
2023-03-12T05:38:18.636Z,0.23
2023-03-12T05:40:31.206Z,0.25
2023-03-12T05:42:43.777Z,0.25
2023-03-12T05:44:59.288Z,0.24
2023-03-12T05:47:11.982Z,0.24
2023-03-12T05:49:24.694Z,0.25
2023-03-12T05:51:37.260Z,0.25
2023-03-12T05:53:49.835Z,0.29
2023-03-12T05:56:07.864Z,0.32
2023-03-12T05:58:20.612Z,0.34
2023-03-12T06:00:37.890Z,0.37
2023-03-12T06:02:50.623Z,0.39
2023-03-12T06:05:03.297Z,0.39
2023-03-12T06:07:15.901Z,0.40
2023-03-12T06:09:28.404Z,0.41
2023-03-12T06:11:40.951Z,0.45
2023-03-12T06:13:53.573Z,0.53
2023-03-12T06:16:09.215Z,0.65
2023-03-12T06:18:21.795Z,0.76
2023-03-12T06:20:34.348Z,0.81
2023-03-12T06:22:46.934Z,0.93
2023-03-12T06:24:59.718Z,1.00
2023-03-12T06:27:16.040Z,1.08
2023-03-12T06:29:28.607Z,1.14
2023-03-12T06:31:42.161Z,1.26
2023-03-12T06:33:54.821Z,1.35
2023-03-12T06:36:08.858Z,1.42
2023-03-12T06:38:21.728Z,1.49
2023-03-12T06:40:34.301Z,1.58
2023-03-12T06:42:46.928Z,1.66
2023-03-12T06:44:59.466Z,1.75
2023-03-12T06:47:12.222Z,1.85
2023-03-12T06:49:25.633Z,1.94
2023-03-12T06:51:38.276Z,1.94
2023-03-12T06:53:50.792Z,1.94
2023-03-12T06:56:04.610Z,2.00
2023-03-12T06:58:18.161Z,1.97
2023-03-12T07:00:32.281Z,1.96
2023-03-12T07:02:44.865Z,1.96
2023-03-12T07:04:57.918Z,2.03
2023-03-12T07:07:11.944Z,2.11
2023-03-12T07:09:24.626Z,2.21
2023-03-12T07:11:37.176Z,2.33
2023-03-12T07:13:49.894Z,2.41
2023-03-12T07:16:03.280Z,2.54
2023-03-12T07:18:16.159Z,2.64
2023-03-12T07:20:29.072Z,2.74
2023-03-12T07:22:41.779Z,2.88
2023-03-12T07:24:54.873Z,3.04
2023-03-12T07:27:07.467Z,3.09
2023-03-12T07:29:20.187Z,3.11
2023-03-12T07:31:32.926Z,3.15
2023-03-12T07:33:45.832Z,3.20
2023-03-12T07:35:58.925Z,3.15
2023-03-12T07:38:11.757Z,3.09
2023-03-12T07:40:24.732Z,3.13
2023-03-12T07:42:37.534Z,3.19
2023-03-12T07:44:50.608Z,3.15
2023-03-12T07:47:20.586Z,3.19
2023-03-12T07:49:35.782Z,3.21
2023-03-12T07:51:48.980Z,3.26
2023-03-12T07:54:01.741Z,3.27
2023-03-12T07:56:14.589Z,3.28
2023-03-12T07:58:27.520Z,3.28
2023-03-12T08:00:40.177Z,3.31
2023-03-12T08:02:53.282Z,3.28
2023-03-12T08:05:07.145Z,3.27
2023-03-12T08:07:19.911Z,3.33
2023-03-12T08:09:33.241Z,3.45
2023-03-12T08:11:45.909Z,3.58
2023-03-12T08:13:58.560Z,3.66
2023-03-12T08:16:11.576Z,3.70
2023-03-12T08:18:24.788Z,3.78
2023-03-12T08:20:37.481Z,3.90
2023-03-12T08:22:50.632Z,3.99
2023-03-12T08:25:03.910Z,4.10
2023-03-12T08:27:16.511Z,4.25
2023-03-12T08:29:29.078Z,4.36
2023-03-12T08:31:50.639Z,4.42
2023-03-12T08:34:14.367Z,4.27
2023-03-12T08:36:27.049Z,4.29
2023-03-12T08:38:39.670Z,4.46
2023-03-12T08:41:00.385Z,4.66
2023-03-12T08:43:13.081Z,4.77
2023-03-12T08:45:25.718Z,4.81
2023-03-12T08:47:41.502Z,4.90
2023-03-12T08:49:54.181Z,4.78
2023-03-12T08:52:07.113Z,4.76
2023-03-12T08:54:20.855Z,4.89
2023-03-12T08:56:33.445Z,5.01
2023-03-12T08:58:46.115Z,5.02
2023-03-12T09:00:58.706Z,5.12
2023-03-12T09:03:14.831Z,5.33
2023-03-12T09:05:31.160Z,5.54
2023-03-12T09:07:43.809Z,5.65
2023-03-12T09:09:56.560Z,5.69
2023-03-12T09:12:09.471Z,5.72
2023-03-12T09:14:59.572Z,5.69
2023-03-12T09:16:54.909Z,5.62
2023-03-12T09:19:07.610Z,5.71
2023-03-12T09:21:20.369Z,5.91
2023-03-12T09:23:32.970Z,6.16
2023-03-12T09:25:46.581Z,6.40
2023-03-12T09:27:59.160Z,6.52
2023-03-12T09:30:15.675Z,6.56
2023-03-12T09:32:28.900Z,6.77
2023-03-12T09:34:42.054Z,6.72
2023-03-12T09:36:54.589Z,6.77
2023-03-12T09:39:07.155Z,6.93
2023-03-12T09:41:23.253Z,7.17
2023-03-12T09:43:35.821Z,7.43
2023-03-12T09:45:49.833Z,7.57
2023-03-12T09:48:06.135Z,7.77
2023-03-12T09:50:45.020Z,8.03
2023-03-12T09:53:12.059Z,7.98
2023-03-12T09:55:25.920Z,7.81
2023-03-12T09:57:38.924Z,7.85
2023-03-12T09:59:53.120Z,8.00
2023-03-12T10:02:40.962Z,8.31
2023-03-12T10:05:06.867Z,8.34
2023-03-12T10:07:38.403Z,8.28
2023-03-12T10:10:16.604Z,8.35
2023-03-12T10:12:45.286Z,8.41
2023-03-12T10:15:38.038Z,8.58
2023-03-12T10:17:56.359Z,8.67
2023-03-12T10:20:34.432Z,8.61
2023-03-12T10:23:09.099Z,8.47
2023-03-12T10:25:36.387Z,8.48
2023-03-12T10:27:50.068Z,8.59
2023-03-12T10:30:12.959Z,8.67
2023-03-12T10:32:42.251Z,8.81
2023-03-12T10:35:00.795Z,8.80
2023-03-12T10:37:29.809Z,8.69
2023-03-12T10:39:44.319Z,8.66
2023-03-12T10:42:01.817Z,8.90
2023-03-12T10:44:23.622Z,8.95
2023-03-12T10:46:52.131Z,8.94
2023-03-12T10:49:22.969Z,9.22
2023-03-12T10:51:54.185Z,9.46
2023-03-12T10:54:22.479Z,9.72
2023-03-12T10:56:49.336Z,9.87
2023-03-12T10:59:01.890Z,9.81
2023-03-12T11:01:23.920Z,9.86
2023-03-12T11:03:36.882Z,9.93
2023-03-12T11:05:52.624Z,9.98
2023-03-12T11:08:21.013Z,10.02
2023-03-12T11:10:45.156Z,9.84
2023-03-12T11:13:01.527Z,9.89
2023-03-12T11:15:38.095Z,9.84
2023-03-12T11:17:51.009Z,9.63
2023-03-12T11:20:21.587Z,9.66
2023-03-12T11:22:35.160Z,9.62
2023-03-12T11:25:06.980Z,9.64
2023-03-12T11:27:37.714Z,9.66
2023-03-12T11:29:50.794Z,9.78
2023-03-12T11:32:17.438Z,10.04
2023-03-12T11:34:37.300Z,10.24
2023-03-12T11:37:14.069Z,10.09
2023-03-12T11:39:27.792Z,9.69
2023-03-12T11:42:00.282Z,9.53
2023-03-12T11:44:14.283Z,9.58
2023-03-12T11:46:45.300Z,9.53
2023-03-12T11:49:34.133Z,9.48
2023-03-12T11:51:52.983Z,9.35
2023-03-12T11:54:22.883Z,9.34
2023-03-12T11:56:41.043Z,9.48
2023-03-12T11:58:59.536Z,9.62
2023-03-12T12:01:42.188Z,9.81
2023-03-12T12:04:33.962Z,9.66
2023-03-12T12:07:03.305Z,9.43
2023-03-12T12:09:44.736Z,9.47
2023-03-12T12:12:36.380Z,9.52
2023-03-12T12:15:03.886Z,9.51
2023-03-12T12:17:37.126Z,9.61
2023-03-12T12:20:21.613Z,9.38
2023-03-12T12:22:39.456Z,9.14
2023-03-12T12:25:25.482Z,9.02
2023-03-12T12:27:56.368Z,8.90
2023-03-12T12:30:40.855Z,9.01
2023-03-12T12:33:11.645Z,9.13
2023-03-12T12:35:44.205Z,9.12
2023-03-12T12:38:03.105Z,9.14
2023-03-12T12:40:32.663Z,9.17
2023-03-12T12:42:57.350Z,9.17
2023-03-12T12:45:14.360Z,9.07
2023-03-12T12:47:37.350Z,8.92
2023-03-12T12:49:58.167Z,8.89
2023-03-12T12:52:19.965Z,8.92
2023-03-12T12:54:51.810Z,8.85
2023-03-12T12:57:16.501Z,8.89
2023-03-12T12:59:58.581Z,8.92
2023-03-12T13:02:21.122Z,8.95
2023-03-12T13:04:37.301Z,8.91
2023-03-12T13:06:57.345Z,8.85
2023-03-12T13:09:15.427Z,8.89
2023-03-12T13:11:42.943Z,9.14
2023-03-12T13:14:04.702Z,9.14
2023-03-12T13:16:39.440Z,9.12
2023-03-12T13:19:06.775Z,9.39
2023-03-12T13:21:29.348Z,9.60
2023-03-12T13:23:51.664Z,9.78
2023-03-12T13:26:41.710Z,9.79
2023-03-12T13:29:05.945Z,9.82
2023-03-12T13:31:24.311Z,9.69
2023-03-12T13:33:42.560Z,9.61
2023-03-12T13:36:11.786Z,9.47
2023-03-12T13:38:55.281Z,9.33
2023-03-12T13:41:08.115Z,9.24
2023-03-12T13:43:38.830Z,9.27
2023-03-12T13:46:10.330Z,9.16
2023-03-12T13:48:24.264Z,9.10
2023-03-12T13:50:51.770Z,9.01
2023-03-12T13:53:08.441Z,8.88
2023-03-12T13:55:26.682Z,8.81
2023-03-12T13:57:43.316Z,8.65
2023-03-12T13:59:56.879Z,8.71
2023-03-12T14:02:23.836Z,8.66
2023-03-12T14:04:42.235Z,8.67
2023-03-12T14:07:09.833Z,8.76
2023-03-12T14:09:45.159Z,8.77
2023-03-12T14:12:14.183Z,8.66
2023-03-12T14:14:42.325Z,8.56
2023-03-12T14:17:01.428Z,8.44
2023-03-12T14:19:16.281Z,8.34
2023-03-12T14:21:35.114Z,8.26
2023-03-12T14:23:57.321Z,8.19
2023-03-12T14:26:20.701Z,8.14
2023-03-12T14:28:40.616Z,8.06
2023-03-12T14:31:03.404Z,8.03
2023-03-12T14:33:17.150Z,8.04
2023-03-12T14:35:38.296Z,8.02
2023-03-12T14:38:08.329Z,7.92
2023-03-12T14:40:46.774Z,7.85
2023-03-12T14:43:00.173Z,7.82
2023-03-12T14:45:18.580Z,7.85
2023-03-12T14:47:42.646Z,7.82
2023-03-12T14:49:57.582Z,7.82
2023-03-12T14:52:34.474Z,7.84
2023-03-12T14:54:59.742Z,7.81
2023-03-12T14:57:20.267Z,7.81
2023-03-12T14:59:39.476Z,7.77
2023-03-12T15:01:52.630Z,7.73
2023-03-12T15:04:15.197Z,7.72
2023-03-12T15:06:31.867Z,7.70
2023-03-12T15:08:45.855Z,7.70
2023-03-12T15:10:59.307Z,7.72
2023-03-12T15:13:13.121Z,7.71
2023-03-12T15:15:32.990Z,7.70
2023-03-12T15:17:45.647Z,7.61
2023-03-12T15:20:02.647Z,7.49
2023-03-12T15:22:20.645Z,7.42
2023-03-12T15:24:38.609Z,7.38
2023-03-12T15:26:51.277Z,7.34
2023-03-12T15:29:27.619Z,7.28
2023-03-12T15:31:46.503Z,7.17
2023-03-12T15:34:05.625Z,7.10
2023-03-12T15:36:25.326Z,7.05
2023-03-12T15:38:46.291Z,7.01
2023-03-12T15:41:06.072Z,6.94
2023-03-12T15:43:21.509Z,6.88
2023-03-12T15:45:40.851Z,6.85
2023-03-12T15:47:54.776Z,6.78
2023-03-12T15:50:17.756Z,6.66
2023-03-12T15:52:33.057Z,6.57
2023-03-12T15:55:22.128Z,6.53
2023-03-12T15:57:35.242Z,6.41
2023-03-12T16:00:08.930Z,6.35
2023-03-12T16:02:36.511Z,6.26
2023-03-12T16:04:49.166Z,6.16
2023-03-12T16:07:02.895Z,6.12
2023-03-12T16:09:21.505Z,6.08
2023-03-12T16:11:37.302Z,6.02
2023-03-12T16:13:52.081Z,5.97
2023-03-12T16:16:04.904Z,5.97
2023-03-12T16:18:19.878Z,5.96
2023-03-12T16:20:32.472Z,5.94
2023-03-12T16:22:45.051Z,5.94
2023-03-12T16:24:57.590Z,5.93
2023-03-12T16:27:18.105Z,5.92
2023-03-12T16:29:35.700Z,5.89
2023-03-12T16:31:52.618Z,5.86
2023-03-12T16:34:05.218Z,5.83
2023-03-12T16:36:19.197Z,5.82
2023-03-12T16:38:31.782Z,5.79
2023-03-12T16:40:47.740Z,5.76
2023-03-12T16:43:03.399Z,5.74
2023-03-12T16:45:17.951Z,5.73
2023-03-12T16:47:30.710Z,5.71
2023-03-12T16:49:44.056Z,5.69
2023-03-12T16:51:56.647Z,5.67
2023-03-12T16:54:11.845Z,5.66
2023-03-12T16:56:27.294Z,5.64
2023-03-12T16:58:39.857Z,5.62
2023-03-12T17:00:54.125Z,5.60
2023-03-12T17:03:06.845Z,5.58
2023-03-12T17:05:19.419Z,5.55
2023-03-12T17:07:31.990Z,5.54
2023-03-12T17:09:44.507Z,5.51
2023-03-12T17:11:57.646Z,5.49
2023-03-12T17:14:21.897Z,5.50
2023-03-12T17:16:37.065Z,5.49
2023-03-12T17:18:49.713Z,5.47
2023-03-12T17:21:02.291Z,5.44
2023-03-12T17:23:15.257Z,5.42
2023-03-12T17:25:31.322Z,5.39
2023-03-12T17:27:43.886Z,5.39
2023-03-12T17:29:56.410Z,5.38
2023-03-12T17:32:08.944Z,5.36
2023-03-12T17:34:21.460Z,5.35
2023-03-12T17:36:36.760Z,5.35
2023-03-12T17:38:50.973Z,5.32
2023-03-12T17:41:09.355Z,5.29
2023-03-12T17:43:26.653Z,5.29
2023-03-12T17:45:39.763Z,5.30
2023-03-12T17:47:52.443Z,5.31
2023-03-12T17:50:06.625Z,5.30
2023-03-12T17:52:19.360Z,5.30
2023-03-12T17:54:31.902Z,5.30
2023-03-12T17:56:44.458Z,5.28
2023-03-12T17:58:57.114Z,5.28
2023-03-12T18:01:12.089Z,5.28
2023-03-12T18:03:25.791Z,5.27
2023-03-12T18:05:41.465Z,5.26
2023-03-12T18:07:54.775Z,5.26
2023-03-12T18:10:11.054Z,5.25
2023-03-12T18:12:23.599Z,5.23
2023-03-12T18:14:36.721Z,5.23
2023-03-12T18:16:49.307Z,5.24
2023-03-12T18:19:01.910Z,5.21
2023-03-12T18:21:14.445Z,5.22
2023-03-12T18:23:27.772Z,5.21
2023-03-12T18:25:40.345Z,5.21
2023-03-12T18:27:54.054Z,5.21
2023-03-12T18:30:11.364Z,5.22
2023-03-12T18:32:23.921Z,5.24
2023-03-12T18:34:37.595Z,5.26
2023-03-12T18:36:50.302Z,5.28
2023-03-12T18:39:04.947Z,5.26
2023-03-12T18:41:17.660Z,5.25
2023-03-12T18:43:30.761Z,5.26
2023-03-12T18:45:44.097Z,5.28
2023-03-12T18:47:57.054Z,5.30
2023-03-12T18:50:10.717Z,5.31
2023-03-12T18:52:23.230Z,5.31
2023-03-12T18:54:35.845Z,5.29
2023-03-12T18:56:48.513Z,5.28
2023-03-12T18:59:01.054Z,5.27
2023-03-12T19:01:14.064Z,5.25
2023-03-12T19:03:27.035Z,5.23
2023-03-12T19:05:39.599Z,5.22
2023-03-12T19:07:52.219Z,5.20
2023-03-12T19:10:06.560Z,5.19
2023-03-12T19:12:19.087Z,5.17
2023-03-12T19:14:31.674Z,5.17
2023-03-12T19:16:44.219Z,5.17
2023-03-12T19:18:56.941Z,5.17
2023-03-12T19:21:09.856Z,5.18
2023-03-12T19:23:23.481Z,5.20
2023-03-12T19:25:37.165Z,5.21
2023-03-12T19:27:49.724Z,5.22
2023-03-12T19:30:02.256Z,5.22
2023-03-12T19:32:14.858Z,5.22
2023-03-12T19:34:27.777Z,5.21
2023-03-12T19:36:40.406Z,5.20
2023-03-12T19:38:52.951Z,5.19
2023-03-12T19:41:08.574Z,5.21
2023-03-12T19:43:21.725Z,5.22
2023-03-12T19:45:36.191Z,5.22
2023-03-12T19:47:49.854Z,5.22
2023-03-12T19:50:02.957Z,5.24
2023-03-12T19:52:15.840Z,5.24
2023-03-12T19:54:28.575Z,5.26
2023-03-12T19:56:41.107Z,5.27
2023-03-12T19:58:53.628Z,5.30
2023-03-12T20:01:06.477Z,5.31
2023-03-12T20:03:20.627Z,5.30
2023-03-12T20:05:33.258Z,5.30
2023-03-12T20:07:46.773Z,5.31
2023-03-12T20:09:59.507Z,5.32
2023-03-12T20:12:12.174Z,5.34
2023-03-12T20:14:25.187Z,5.33
2023-03-12T20:16:38.029Z,5.33
2023-03-12T20:18:50.884Z,5.33
2023-03-12T20:21:03.896Z,5.31
2023-03-12T20:23:16.596Z,5.30
2023-03-12T20:25:29.078Z,5.29
2023-03-12T20:27:41.780Z,5.29
2023-03-12T20:29:54.415Z,5.29
2023-03-12T20:32:07.036Z,5.29
2023-03-12T20:34:19.638Z,5.28
2023-03-12T20:36:32.283Z,5.26
2023-03-12T20:38:48.206Z,5.27
2023-03-12T20:41:01.118Z,5.26
2023-03-12T20:43:13.797Z,5.25
2023-03-12T20:45:26.465Z,5.22
2023-03-12T20:47:40.332Z,5.18
2023-03-12T20:49:53.066Z,5.12
2023-03-12T20:52:05.610Z,5.07
2023-03-12T20:54:18.191Z,5.03
2023-03-12T20:56:30.736Z,4.96
2023-03-12T20:58:43.287Z,4.89
2023-03-12T21:00:55.923Z,4.84
2023-03-12T21:03:12.178Z,4.78
2023-03-12T21:05:26.684Z,4.75
2023-03-12T21:07:39.308Z,4.76
2023-03-12T21:09:52.075Z,4.73
2023-03-12T21:12:04.773Z,4.76
2023-03-12T21:14:17.341Z,4.78
2023-03-12T21:16:29.931Z,4.77
2023-03-12T21:18:42.509Z,4.81
2023-03-12T21:21:01.295Z,4.80
2023-03-12T21:23:14.129Z,4.82
2023-03-12T21:25:26.650Z,4.79
2023-03-12T21:27:49.856Z,4.78
2023-03-12T21:30:04.700Z,4.78
2023-03-12T21:32:17.365Z,4.79
2023-03-12T21:34:30.535Z,4.81
2023-03-12T21:36:43.158Z,4.83
2023-03-12T21:38:55.697Z,4.86
2023-03-12T21:41:11.111Z,4.89
2023-03-12T21:43:23.998Z,4.92
2023-03-12T21:45:36.599Z,4.94
2023-03-12T21:47:49.135Z,4.97
2023-03-12T21:50:01.861Z,5.01
2023-03-12T21:52:14.452Z,5.05
2023-03-12T21:54:32.717Z,5.09
2023-03-12T21:56:45.289Z,5.09
2023-03-12T21:58:58.323Z,5.12
2023-03-12T22:01:13.806Z,5.15
2023-03-12T22:03:26.435Z,5.15
2023-03-12T22:05:39.115Z,5.15
2023-03-12T22:07:51.768Z,5.16
2023-03-12T22:10:11.710Z,5.18
2023-03-12T22:12:24.397Z,5.20
2023-03-12T22:14:36.966Z,5.23
2023-03-12T22:16:49.568Z,5.27
2023-03-12T22:19:02.115Z,5.29
2023-03-12T22:21:19.591Z,5.32
2023-03-12T22:23:32.147Z,5.33
2023-03-12T22:25:44.746Z,5.37
2023-03-12T22:27:57.381Z,5.41
2023-03-12T22:30:12.343Z,5.42
2023-03-12T22:32:25.669Z,5.43
2023-03-12T22:34:38.835Z,5.45
2023-03-12T22:36:51.368Z,5.48
2023-03-12T22:39:03.950Z,5.50
2023-03-12T22:41:26.772Z,5.50
2023-03-12T22:43:39.393Z,5.48
2023-03-12T22:45:54.792Z,5.49
2023-03-12T22:48:08.018Z,5.52
2023-03-12T22:50:21.091Z,5.55
2023-03-12T22:52:34.883Z,5.61
2023-03-12T22:54:47.458Z,5.63
2023-03-12T22:57:00.062Z,5.64
2023-03-12T22:59:12.618Z,5.67
2023-03-12T23:01:25.362Z,5.68
2023-03-12T23:03:40.032Z,5.70
2023-03-12T23:05:52.687Z,5.72
2023-03-12T23:08:05.447Z,5.74
2023-03-12T23:10:18.073Z,5.76
2023-03-12T23:12:30.798Z,5.79
2023-03-12T23:14:43.360Z,5.81
2023-03-12T23:16:57.440Z,5.85
2023-03-12T23:19:10.003Z,5.86
2023-03-12T23:21:23.920Z,5.90
2023-03-12T23:23:37.461Z,5.93
2023-03-12T23:25:54.729Z,5.97
2023-03-12T23:28:07.512Z,6.00
2023-03-12T23:30:20.149Z,6.02
2023-03-12T23:32:34.507Z,6.04
2023-03-12T23:34:47.197Z,6.07
2023-03-12T23:37:00.094Z,6.10
2023-03-12T23:39:13.308Z,6.12
2023-03-12T23:41:29.452Z,6.16
2023-03-12T23:43:43.363Z,6.18
2023-03-12T23:45:58.389Z,6.19
2023-03-12T23:48:11.062Z,6.21
2023-03-12T23:50:23.692Z,6.24
2023-03-12T23:52:36.286Z,6.28
2023-03-12T23:54:48.945Z,6.33
2023-03-12T23:57:01.780Z,6.34
2023-03-12T23:59:14.322Z,6.36
